Time;durP1;ratioP1;P1;durP2;ratioP2;P2;SDS_P1;SDS_P2;PMS_P1;PMS_P2;Temp;Humidity;BMP_temperature;BMP_pressure;BME280_temperature;BME280_humidity;BME280_pressure;Samples;Min_cycle;Max_cycle;Signal;HPM_P1;HPM_P2
2023/08/02 00:01:03;;;;;;;9.93;4.47;;;21.60;99.90;;;;;;5053089;28;20022;-60
2023/08/02 00:03:28;;;;;;;9.73;4.13;;;21.50;99.90;;;;;;5053007;28;20033;-60
2023/08/02 00:05:58;;;;;;;10.45;4.43;;;21.50;99.90;;;;;;5053138;28;20507;-60
2023/08/02 00:08:25;;;;;;;13.05;4.90;;;21.50;99.90;;;;;;5053015;28;20159;-60
2023/08/02 00:10:51;;;;;;;13.30;4.75;;;21.50;99.90;;;;;;5052501;28;20028;-60
2023/08/02 00:13:17;;;;;;;11.55;4.47;;;21.40;99.90;;;;;;5052841;28;20029;-60
2023/08/02 00:15:43;;;;;;;14.00;4.80;;;21.40;99.90;;;;;;5052822;28;20037;-59
2023/08/02 00:18:09;;;;;;;12.88;4.60;;;21.30;99.90;;;;;;5052718;28;20041;-60
2023/08/02 00:20:37;;;;;;;13.27;4.78;;;21.30;99.90;;;;;;5053403;28;20029;-60
2023/08/02 00:23:03;;;;;;;12.70;4.90;;;21.40;99.90;;;;;;5051346;28;20035;-60
2023/08/02 00:25:29;;;;;;;13.00;4.55;;;21.30;99.90;;;;;;5052128;28;20053;-60
2023/08/02 00:27:55;;;;;;;13.32;5.00;;;21.30;99.90;;;;;;5053094;28;20029;-60
2023/08/02 00:30:21;;;;;;;15.38;4.97;;;21.30;99.90;;;;;;5052474;28;20135;-60
2023/08/02 00:32:48;;;;;;;14.02;4.90;;;21.30;99.90;;;;;;5052017;28;20035;-60
2023/08/02 00:35:14;;;;;;;13.65;4.72;;;21.30;99.90;;;;;;5051361;28;20059;-60
2023/08/02 00:37:41;;;;;;;11.20;4.47;;;21.40;99.90;;;;;;5052158;28;20060;-60
2023/08/02 00:40:07;;;;;;;12.65;4.97;;;21.50;99.90;;;;;;5052112;28;20029;-60
2023/08/02 00:42:33;;;;;;;13.07;4.95;;;21.60;99.90;;;;;;5052290;28;20029;-60
2023/08/02 00:44:58;;;;;;;14.35;4.75;;;21.70;99.90;;;;;;5052292;28;20017;-60
2023/08/02 00:47:25;;;;;;;11.38;4.75;;;21.90;99.90;;;;;;5052266;28;20025;-60
2023/08/02 00:49:50;;;;;;;11.90;4.85;;;22.00;99.90;;;;;;5052439;28;20031;-60
2023/08/02 00:52:16;;;;;;;11.63;4.22;;;22.10;99.90;;;;;;5052127;28;20029;-60
2023/08/02 00:54:42;;;;;;;10.98;4.50;;;22.00;99.90;;;;;;5051800;28;20036;-60
2023/08/02 00:57:09;;;;;;;11.98;5.18;;;22.00;99.90;;;;;;5051887;28;20024;-60
2023/08/02 00:59:40;;;;;;;12.15;5.10;;;22.00;99.90;;;;;;5052117;28;20039;-60
2023/08/02 01:02:06;;;;;;;14.18;5.05;;;22.10;99.90;;;;;;5052135;28;20435;-60
2023/08/02 01:04:36;;;;;;;11.20;4.63;;;22.00;99.90;;;;;;5051966;28;20397;-59
2023/08/02 01:07:17;;;;;;;12.45;5.30;;;22.00;99.90;;;;;;5051765;28;20036;-60
2023/08/02 01:10:09;;;;;;;13.27;4.60;;;22.10;99.90;;;;;;5051993;28;20021;-60
2023/08/02 01:12:37;;;;;;;14.68;4.47;;;22.10;99.90;;;;;;5051940;28;20119;-60
2023/08/02 01:15:05;;;;;;;13.80;5.05;;;22.00;99.90;;;;;;5052022;28;20058;-60
2023/08/02 01:17:31;;;;;;;12.70;4.65;;;21.90;99.90;;;;;;5051584;28;20040;-60
2023/08/02 01:20:06;;;;;;;13.52;5.15;;;21.80;99.90;;;;;;5052086;28;20410;-60
2023/08/02 01:22:32;;;;;;;13.00;5.18;;;21.70;99.90;;;;;;5051593;28;20162;-60
2023/08/02 01:25:01;;;;;;;11.27;4.85;;;21.80;99.90;;;;;;5051110;28;20503;-60
2023/08/02 01:27:34;;;;;;;12.43;5.45;;;21.70;99.90;;;;;;5051903;28;20029;-60
2023/08/02 01:30:01;;;;;;;;;;;21.70;99.90;;;;;;5051912;28;20029;-60
2023/08/02 01:32:27;;;;;;;11.32;5.13;;;21.70;99.90;;;;;;5051382;28;19950;-60
2023/08/02 01:34:53;;;;;;;15.07;5.47;;;21.80;99.90;;;;;;5051319;28;20024;-60
2023/08/02 01:37:20;;;;;;;14.75;5.30;;;21.80;99.90;;;;;;5050953;28;20067;-60
2023/08/02 01:39:45;;;;;;;11.98;4.80;;;21.70;99.90;;;;;;5051350;28;20041;-60
2023/08/02 01:42:12;;;;;;;15.65;5.85;;;21.70;99.90;;;;;;5051356;28;20029;-60
2023/08/02 01:44:37;;;;;;;15.40;5.80;;;21.70;99.90;;;;;;5050442;28;20036;-61
2023/08/02 01:47:03;;;;;;;14.05;5.22;;;21.70;99.90;;;;;;5051266;28;20025;-60
2023/08/02 01:49:29;;;;;;;15.45;5.93;;;21.70;99.90;;;;;;5051219;28;20031;-60
2023/08/02 01:51:54;;;;;;;13.88;5.15;;;21.70;99.90;;;;;;5051105;28;20013;-60
2023/08/02 01:54:20;;;;;;;13.65;5.47;;;21.70;99.90;;;;;;5051090;28;20497;-59
2023/08/02 01:56:46;;;;;;;14.05;5.00;;;21.90;99.90;;;;;;5051222;28;20336;-60
2023/08/02 01:59:12;;;;;;;11.65;5.07;;;22.10;99.90;;;;;;5051594;28;20044;-60
2023/08/02 02:01:38;;;;;;;12.50;4.63;;;22.10;99.90;;;;;;5051027;28;20033;-60
2023/08/02 02:04:04;;;;;;;11.25;5.00;;;22.20;99.90;;;;;;5051063;28;20025;-60
2023/08/02 02:06:30;;;;;;;11.98;4.85;;;22.40;99.90;;;;;;5050741;28;20060;-60
2023/08/02 02:08:55;;;;;;;11.73;4.85;;;22.40;99.90;;;;;;5051191;28;20070;-60
2023/08/02 02:11:21;;;;;;;10.43;4.85;;;22.40;99.90;;;;;;5051110;28;20490;-60
2023/08/02 02:13:47;;;;;;;11.25;5.00;;;22.40;99.90;;;;;;5050907;28;20029;-60
2023/08/02 02:16:12;;;;;;;12.80;5.88;;;22.40;99.90;;;;;;5051024;28;20055;-60
2023/08/02 02:18:38;;;;;;;16.40;5.45;;;22.40;99.90;;;;;;5050684;28;20116;-60
2023/08/02 02:21:04;;;;;;;13.82;5.15;;;22.40;99.90;;;;;;5051011;28;20496;-60
2023/08/02 02:23:30;;;;;;;15.30;5.95;;;22.30;99.90;;;;;;5050709;28;20108;-61
2023/08/02 02:25:55;;;;;;;13.95;5.60;;;22.30;99.90;;;;;;5051001;28;20191;-60
2023/08/02 02:28:21;;;;;;;14.55;5.30;;;22.20;99.90;;;;;;5051051;28;20390;-60
2023/08/02 02:30:48;;;;;;;13.77;5.72;;;22.10;99.90;;;;;;5050867;28;20504;-60
2023/08/02 02:33:14;;;;;;;11.82;5.57;;;22.10;99.90;;;;;;5050866;28;20032;-60
2023/08/02 02:35:40;;;;;;;15.30;5.43;;;22.00;99.90;;;;;;5050808;28;20128;-60
2023/08/02 02:38:05;;;;;;;11.95;5.15;;;21.90;99.90;;;;;;5050595;28;20108;-60
2023/08/02 02:40:31;;;;;;;14.65;5.72;;;21.90;99.90;;;;;;5050914;28;20091;-59
2023/08/02 02:42:57;;;;;;;13.45;5.57;;;21.80;99.90;;;;;;5051231;28;20051;-60
2023/08/02 02:45:25;;;;;;;13.30;5.00;;;21.80;99.90;;;;;;5049419;28;20412;-60
2023/08/02 02:47:50;;;;;;;11.85;5.30;;;21.80;99.90;;;;;;5050660;28;20045;-60
2023/08/02 02:50:17;;;;;;;14.80;6.22;;;21.80;99.90;;;;;;5050710;28;20072;-60
2023/08/02 02:52:43;;;;;;;13.38;5.97;;;21.80;99.90;;;;;;5050602;28;20021;-60
2023/08/02 02:55:09;;;;;;;11.65;5.78;;;21.80;99.90;;;;;;5051200;28;20452;-60
2023/08/02 02:57:35;;;;;;;13.13;5.45;;;21.80;99.90;;;;;;5054723;28;20410;-59
2023/08/02 03:00:01;;;;;;;13.65;5.75;;;21.70;99.90;;;;;;5054261;28;20027;-60
2023/08/02 03:02:26;;;;;;;13.52;5.72;;;21.80;99.90;;;;;;5054232;28;20039;-60
2023/08/02 03:04:52;;;;;;;11.38;5.25;;;21.80;99.90;;;;;;5053939;28;20067;-60
2023/08/02 03:07:18;;;;;;;15.30;5.82;;;21.80;99.90;;;;;;5054538;28;20025;-60
2023/08/02 03:09:43;;;;;;;13.07;5.60;;;21.80;99.90;;;;;;5054148;28;20143;-60
2023/08/02 03:12:09;;;;;;;11.38;5.45;;;21.90;99.90;;;;;;5054043;28;20095;-60
2023/08/02 03:14:35;;;;;;;14.07;5.25;;;22.00;99.90;;;;;;5054017;28;20462;-59
2023/08/02 03:17:00;;;;;;;11.05;5.20;;;22.20;99.90;;;;;;5053864;28;20074;-60
2023/08/02 03:19:26;;;;;;;11.95;5.07;;;22.20;99.90;;;;;;5053793;28;20064;-60
2023/08/02 03:21:51;;;;;;;13.27;5.40;;;22.40;99.90;;;;;;5052682;28;20036;-60
2023/08/02 03:24:17;;;;;;;10.80;5.43;;;22.40;99.90;;;;;;5053826;28;20187;-60
2023/08/02 03:26:43;;;;;;;12.32;5.15;;;22.50;99.90;;;;;;5053920;28;20393;-60
2023/08/02 03:29:08;;;;;;;12.85;5.18;;;22.50;99.90;;;;;;5054069;28;20413;-60
2023/08/02 03:31:34;;;;;;;13.02;5.28;;;22.30;99.90;;;;;;5053556;28;20474;-60
2023/08/02 03:34:00;;;;;;;12.73;5.22;;;22.50;99.90;;;;;;5053510;28;20021;-61
2023/08/02 03:36:25;;;;;;;11.27;4.90;;;22.50;99.90;;;;;;5053686;28;20111;-60
2023/08/02 03:38:51;;;;;;;13.57;5.10;;;22.60;99.90;;;;;;5053435;28;20043;-60
2023/08/02 03:41:17;;;;;;;9.73;4.80;;;22.60;99.90;;;;;;5053593;28;20032;-60
2023/08/02 03:43:42;;;;;;;11.68;5.20;;;22.50;99.90;;;;;;5053502;28;20078;-60
2023/08/02 03:46:08;;;;;;;13.32;5.28;;;22.50;99.90;;;;;;5053676;28;20505;-60
2023/08/02 03:48:34;;;;;;;8.32;4.63;;;22.40;99.90;;;;;;5053162;28;20029;-60
2023/08/02 03:50:59;;;;;;;9.18;4.93;;;22.30;99.90;;;;;;5053370;28;20099;-60
2023/08/02 03:53:26;;;;;;;10.35;4.80;;;22.10;99.90;;;;;;5053231;28;20107;-60
2023/08/02 03:55:52;;;;;;;13.38;5.28;;;22.00;99.90;;;;;;5053620;28;20175;-60
2023/08/02 03:58:18;;;;;;;12.02;4.82;;;22.00;99.90;;;;;;5053504;28;20055;-60
2023/08/02 04:00:43;;;;;;;12.10;5.10;;;21.90;99.90;;;;;;5053060;28;20091;-60
2023/08/02 04:03:09;;;;;;;11.32;5.13;;;21.90;99.90;;;;;;5052871;28;20116;-60
2023/08/02 04:05:35;;;;;;;11.30;4.85;;;21.90;99.90;;;;;;5053445;28;20066;-59
2023/08/02 04:08:00;;;;;;;12.60;4.90;;;21.90;99.90;;;;;;5052082;28;20109;-60
2023/08/02 04:10:26;;;;;;;13.25;5.55;;;21.90;99.90;;;;;;5053055;28;20040;-60
2023/08/02 04:12:52;;;;;;;14.27;5.72;;;21.90;99.90;;;;;;5053276;28;20372;-60
2023/08/02 04:15:17;;;;;;;10.90;5.10;;;21.90;99.90;;;;;;5052768;28;20454;-60
2023/08/02 04:17:43;;;;;;;12.18;5.72;;;21.80;99.90;;;;;;5052492;28;20040;-60
2023/08/02 04:20:09;;;;;;;13.60;5.40;;;21.80;99.90;;;;;;5052656;28;20028;-60
2023/08/02 04:22:35;;;;;;;14.38;5.38;;;21.80;99.90;;;;;;5052772;28;20025;-60
2023/08/02 04:25:03;;;;;;;13.85;5.20;;;21.80;99.90;;;;;;5052548;28;20501;-60
2023/08/02 04:27:29;;;;;;;14.38;5.80;;;21.80;99.90;;;;;;5052959;28;20025;-60
2023/08/02 04:29:54;;;;;;;12.70;5.45;;;21.80;99.90;;;;;;5052793;28;20032;-60
2023/08/02 04:32:20;;;;;;;12.70;5.32;;;21.90;99.90;;;;;;5052198;28;20040;-60
2023/08/02 04:34:46;;;;;;;10.80;4.93;;;22.00;99.90;;;;;;5052534;28;20025;-60
2023/08/02 04:37:11;;;;;;;11.00;5.15;;;22.20;99.90;;;;;;5052460;28;20033;-60
2023/08/02 04:39:37;;;;;;;14.40;5.47;;;22.20;99.90;;;;;;5052375;28;20041;-60
2023/08/02 04:42:03;;;;;;;15.25;5.55;;;22.20;99.90;;;;;;5052321;28;20478;-60
2023/08/02 04:44:29;;;;;;;11.57;5.45;;;22.40;99.90;;;;;;5052226;28;20481;-60
2023/08/02 04:46:55;;;;;;;11.40;5.30;;;22.40;99.90;;;;;;5052142;28;20035;-60
2023/08/02 04:49:20;;;;;;;12.48;5.45;;;22.30;99.90;;;;;;5052649;28;20020;-60
2023/08/02 04:51:46;;;;;;;13.68;5.60;;;22.40;99.90;;;;;;5050852;28;20037;-59
2023/08/02 04:54:12;;;;;;;13.85;5.70;;;22.40;99.90;;;;;;5052216;28;20033;-60
2023/08/02 04:56:40;;;;;;;10.85;5.35;;;22.40;99.90;;;;;;5052224;28;20036;-60
2023/08/02 04:59:06;;;;;;;13.95;5.82;;;22.40;99.90;;;;;;5052326;28;20033;-60
2023/08/02 05:01:32;;;;;;;13.20;5.47;;;22.40;99.90;;;;;;5051889;28;20025;-60
2023/08/02 05:03:58;;;;;;;12.77;5.30;;;22.40;99.90;;;;;;5051932;28;20032;-60
2023/08/02 05:06:24;;;;;;;12.80;5.95;;;22.30;99.90;;;;;;5051977;28;20029;-60
2023/08/02 05:08:49;;;;;;;12.40;6.18;;;22.20;99.90;;;;;;5050616;28;20116;-60
2023/08/02 05:11:15;;;;;;;11.70;5.40;;;22.20;99.90;;;;;;5051738;28;20383;-60
2023/08/02 05:13:41;;;;;;;13.40;5.53;;;22.10;99.90;;;;;;5051567;28;20110;-60
2023/08/02 05:16:12;;;;;;;14.32;6.10;;;22.10;99.90;;;;;;5051811;28;20035;-60
2023/08/02 05:18:39;;;;;;;11.88;5.50;;;22.00;99.90;;;;;;5051455;28;20043;-60
2023/08/02 05:21:15;;;;;;;13.75;5.70;;;22.10;99.90;;;;;;5051703;28;20467;-60
2023/08/02 05:23:42;;;;;;;12.73;5.80;;;22.00;99.90;;;;;;5051910;28;20107;-59
2023/08/02 05:26:09;;;;;;;13.45;5.43;;;21.90;99.90;;;;;;5051561;28;20032;-60
2023/08/02 05:28:35;;;;;;;12.95;5.65;;;22.00;99.90;;;;;;5051415;28;20025;-60
2023/08/02 05:31:02;;;;;;;13.35;5.30;;;21.90;99.90;;;;;;5051343;28;20470;-60
2023/08/02 05:33:28;;;;;;;12.25;5.53;;;21.90;99.90;;;;;;5051573;28;20032;-60
2023/08/02 05:35:53;;;;;;;13.77;5.95;;;22.00;99.90;;;;;;5051595;28;20027;-60
2023/08/02 05:38:20;;;;;;;13.32;5.82;;;22.00;99.90;;;;;;5051318;28;20040;-60
2023/08/02 05:40:45;;;;;;;14.75;5.90;;;22.00;99.90;;;;;;5051658;28;20486;-60
2023/08/02 05:43:11;;;;;;;12.05;5.82;;;22.00;99.90;;;;;;5051358;28;20036;-60
2023/08/02 05:45:37;;;;;;;17.45;6.32;;;22.00;99.90;;;;;;5051010;28;20251;-61
2023/08/02 05:48:03;;;;;;;16.15;6.05;;;22.00;99.90;;;;;;5051296;28;20036;-60
2023/08/02 05:50:29;;;;;;;12.95;6.15;;;22.20;99.90;;;;;;5051223;28;20013;-60
2023/08/02 05:52:55;;;;;;;18.40;6.78;;;22.40;99.90;;;;;;5051255;28;20502;-60
2023/08/02 05:55:21;;;;;;;13.82;5.95;;;22.40;99.90;;;;;;5051203;28;20025;-60
2023/08/02 05:57:49;;;;;;;13.85;5.43;;;22.60;99.90;;;;;;5051498;28;20029;-60
2023/08/02 06:00:16;;;;;;;12.88;6.07;;;22.50;99.90;;;;;;5050797;28;20052;-59
2023/08/02 06:02:42;;;;;;;13.70;6.03;;;22.60;99.90;;;;;;5051143;28;20036;-60
2023/08/02 06:05:08;;;;;;;12.00;5.45;;;22.60;99.90;;;;;;5051125;28;20064;-60
2023/08/02 06:07:34;;;;;;;15.13;5.85;;;22.60;99.90;;;;;;5051341;28;20025;-60
2023/08/02 06:09:59;;;;;;;12.80;5.40;;;22.60;99.90;;;;;;5051252;28;20021;-60
2023/08/02 06:12:25;;;;;;;11.05;5.25;;;22.60;99.90;;;;;;5050793;28;20485;-59
2023/08/02 06:14:51;;;;;;;10.55;5.07;;;22.80;99.90;;;;;;5049706;28;20032;-60
2023/08/02 06:17:17;;;;;;;15.23;5.90;;;22.80;99.90;;;;;;5051102;28;20037;-60
2023/08/02 06:19:42;;;;;;;12.40;5.75;;;22.70;99.90;;;;;;5050846;28;20039;-60
2023/08/02 06:22:09;;;;;;;11.10;5.35;;;22.80;99.90;;;;;;5051052;28;20025;-60
2023/08/02 06:24:35;;;;;;;12.82;5.40;;;22.70;99.90;;;;;;5050787;28;20076;-60
2023/08/02 06:27:00;;;;;;;11.52;5.47;;;22.70;99.90;;;;;;5050973;28;20045;-61
2023/08/02 06:29:26;;;;;;;11.90;5.30;;;22.60;99.90;;;;;;5050880;28;20118;-60
2023/08/02 06:31:52;;;;;;;12.70;6.13;;;22.50;99.90;;;;;;5054369;28;20036;-60
2023/08/02 06:34:17;;;;;;;14.35;5.65;;;22.50;99.90;;;;;;5053673;28;20039;-60
2023/08/02 06:36:43;;;;;;;13.13;5.80;;;22.50;99.90;;;;;;5054830;28;20067;-60
2023/08/02 06:39:09;;;;;;;14.23;5.85;;;22.40;99.90;;;;;;5054615;28;20107;-60
2023/08/02 06:41:34;;;;;;;12.18;6.03;;;22.40;99.90;;;;;;5054618;28;20025;-60
2023/08/02 06:44:00;;;;;;;13.05;5.47;;;22.40;99.90;;;;;;5054387;28;20025;-59
2023/08/02 06:46:26;;;;;;;10.68;5.22;;;22.40;99.90;;;;;;5054715;28;20060;-60
2023/08/02 06:48:51;;;;;;;12.23;5.78;;;22.40;99.90;;;;;;5054557;28;20553;-60
2023/08/02 06:51:17;;;;;;;12.93;6.10;;;22.50;99.90;;;;;;5054456;28;20060;-59
2023/08/02 06:53:43;;;;;;;12.02;5.65;;;22.50;99.90;;;;;;5054749;28;20025;-60
2023/08/02 06:56:17;;;;;;;12.90;5.35;;;22.50;99.90;;;;;;5054339;28;20090;-60
2023/08/02 06:58:43;;;;;;;14.02;5.20;;;22.50;99.90;;;;;;5054340;28;20067;-60
2023/08/02 07:01:19;;;;;;;13.70;5.75;;;22.50;99.90;;;;;;5054329;28;20028;-60
2023/08/02 07:03:45;;;;;;;10.13;5.20;;;22.60;99.90;;;;;;5053428;28;20367;-60
2023/08/02 07:06:13;;;;;;;12.55;5.20;;;22.60;99.90;;;;;;5054240;28;20508;-60
2023/08/02 07:08:40;;;;;;;10.90;5.05;;;22.70;99.90;;;;;;5054131;28;20043;-60
2023/08/02 07:11:06;;;;;;;12.80;5.18;;;22.90;99.90;;;;;;5053925;28;20021;-60
2023/08/02 07:13:33;;;;;;;12.07;5.32;;;23.00;99.90;;;;;;5054271;28;20029;-60
2023/08/02 07:15:59;;;;;;;13.90;5.95;;;23.10;99.90;;;;;;5054039;28;20017;-60
2023/08/02 07:18:25;;;;;;;12.00;5.47;;;23.20;99.90;;;;;;5054171;28;20178;-59
2023/08/02 07:20:51;;;;;;;10.88;5.25;;;23.10;99.90;;;;;;5054371;28;20417;-60
2023/08/02 07:23:16;;;;;;;9.88;5.05;;;23.20;99.90;;;;;;5053869;28;20037;-60
2023/08/02 07:25:42;;;;;;;11.70;5.10;;;23.30;99.90;;;;;;5053275;28;20060;-60
2023/08/02 07:28:08;;;;;;;15.02;5.57;;;23.30;99.90;;;;;;5053838;28;20490;-60
2023/08/02 07:30:33;;;;;;;11.32;5.32;;;23.30;99.90;;;;;;5053770;28;20158;-59
2023/08/02 07:32:59;;;;;;;12.35;5.10;;;23.30;99.90;;;;;;5054052;28;20029;-59
2023/08/02 07:35:25;;;;;;;11.55;4.60;;;23.40;99.90;;;;;;5053709;28;20049;-60
2023/08/02 07:37:50;;;;;;;10.00;4.70;;;23.50;99.90;;;;;;5053536;28;20507;-60
2023/08/02 07:40:16;;;;;;;13.68;4.93;;;23.40;99.90;;;;;;5053382;28;20028;-60
2023/08/02 07:42:42;;;;;;;9.45;4.82;;;23.30;99.90;;;;;;5052378;28;20082;-60
2023/08/02 07:45:10;;;;;;;10.32;5.50;;;23.20;99.90;;;;;;5053619;28;20095;-60
2023/08/02 07:47:36;;;;;;;10.90;5.30;;;23.20;99.90;;;;;;5052105;28;20025;-60
2023/08/02 07:50:03;;;;;;;13.20;5.47;;;23.00;99.90;;;;;;5053486;28;20100;-60
2023/08/02 07:52:28;;;;;;;11.70;5.32;;;23.00;99.90;;;;;;5053213;28;20029;-60
2023/08/02 07:54:55;;;;;;;11.35;5.20;;;23.00;99.90;;;;;;5053098;28;20051;-60
2023/08/02 07:57:26;;;;;;;10.18;4.72;;;22.90;99.90;;;;;;5053553;28;20057;-60
2023/08/02 07:59:52;;;;;;;13.75;5.60;;;22.90;99.90;;;;;;5053435;28;20109;-59
2023/08/02 08:02:19;;;;;;;10.82;5.32;;;22.90;99.90;;;;;;5053346;28;20078;-59
2023/08/02 08:04:45;;;;;;;11.32;5.47;;;22.90;99.90;;;;;;5053119;28;20112;-60
2023/08/02 08:07:10;;;;;;;10.75;5.13;;;22.90;99.90;;;;;;5053045;28;20100;-60
2023/08/02 08:09:36;;;;;;;9.40;4.38;;;22.90;99.90;;;;;;5053052;28;20029;-59
2023/08/02 08:12:06;;;;;;;10.07;4.70;;;23.00;99.90;;;;;;5052916;28;20071;-60
2023/08/02 08:14:33;;;;;;;11.80;4.72;;;23.00;99.90;;;;;;5052832;28;20021;-60
2023/08/02 08:16:59;;;;;;;10.45;4.57;;;23.00;99.90;;;;;;5052897;28;20116;-60
2023/08/02 08:19:26;;;;;;;11.25;5.00;;;23.10;99.90;;;;;;5052638;28;20490;-60
2023/08/02 08:21:52;;;;;;;12.02;5.15;;;23.10;99.90;;;;;;5052696;28;20078;-59
2023/08/02 08:24:18;;;;;;;10.40;4.63;;;23.10;99.90;;;;;;5052290;28;20048;-60
2023/08/02 08:26:44;;;;;;;11.77;5.00;;;23.30;99.90;;;;;;5052819;28;20024;-60
2023/08/02 08:29:09;;;;;;;10.27;4.47;;;23.50;99.90;;;;;;5053048;28;20029;-59
2023/08/02 08:31:36;;;;;;;9.30;4.55;;;23.60;99.90;;;;;;5052544;28;20025;-60
2023/08/02 08:34:02;;;;;;;14.07;4.88;;;23.70;99.90;;;;;;5052656;28;20029;-60
2023/08/02 08:36:29;;;;;;;14.20;4.82;;;23.70;99.90;;;;;;5052489;28;20033;-59
2023/08/02 08:38:55;;;;;;;11.35;4.40;;;23.80;99.90;;;;;;5052222;28;20029;-59
2023/08/02 08:41:21;;;;;;;10.23;5.00;;;23.80;99.90;;;;;;5052503;28;20449;-59
2023/08/02 08:43:47;;;;;;;11.43;4.65;;;23.90;99.90;;;;;;5052842;28;20032;-59
2023/08/02 08:46:14;;;;;;;9.20;4.30;;;24.00;99.90;;;;;;5052285;28;20033;-59
2023/08/02 08:48:40;;;;;;;10.85;4.38;;;24.00;99.90;;;;;;5052289;28;20578;-60
2023/08/02 08:51:08;;;;;;;11.18;4.55;;;24.00;99.90;;;;;;5050976;28;20422;-60
2023/08/02 08:53:35;;;;;;;9.25;4.32;;;23.90;99.90;;;;;;5051343;28;20021;-59
2023/08/02 08:56:04;;;;;;;11.55;4.75;;;24.00;99.90;;;;;;5052127;28;20033;-59
2023/08/02 08:58:33;;;;;;;9.50;4.43;;;24.00;99.90;;;;;;5050786;28;20045;-59
2023/08/02 09:01:00;;;;;;;13.00;5.20;;;24.10;99.90;;;;;;5051984;28;20028;-60
2023/08/02 09:03:26;;;;;;;10.07;4.53;;;24.10;99.90;;;;;;5051959;28;20498;-60
2023/08/02 09:05:52;;;;;;;10.85;4.65;;;24.00;99.90;;;;;;5052279;28;20067;-59
2023/08/02 09:08:18;;;;;;;9.55;4.68;;;23.90;99.90;;;;;;5051596;28;20033;-60
2023/08/02 09:10:44;;;;;;;10.70;4.63;;;23.90;99.90;;;;;;5051927;28;20154;-60
2023/08/02 09:13:26;;;;;;;9.45;5.13;;;23.90;99.90;;;;;;5051696;28;20052;-60
2023/08/02 09:16:10;;;;;;;9.45;4.15;;;23.90;99.90;;;;;;5051878;28;20104;-60
2023/08/02 09:18:37;;;;;;;;;;;24.00;99.90;;;;;;5051974;28;20037;-60
2023/08/02 09:21:03;;;;;;;8.93;4.18;;;24.00;99.90;;;;;;5051734;28;19905;-60
2023/08/02 09:23:29;;;;;;;8.80;4.18;;;24.00;99.90;;;;;;5051304;28;20025;-60
2023/08/02 09:26:11;;;;;;;9.18;4.55;;;24.00;99.90;;;;;;5051491;28;20417;-59
2023/08/02 09:28:37;;;;;;;9.45;4.35;;;23.90;99.90;;;;;;5051923;28;20060;-61
2023/08/02 09:31:16;;;;;;;8.77;4.13;;;23.90;99.90;;;;;;5051454;28;20021;-60
2023/08/02 09:33:53;;;;;;;8.15;4.22;;;23.80;99.90;;;;;;5051376;28;20021;-60
2023/08/02 09:36:36;;;;;;;8.88;4.35;;;23.80;99.90;;;;;;5051177;28;20036;-60
2023/08/02 09:39:09;;;;;;;;;;;23.70;99.90;;;;;;5051835;28;20040;-60
2023/08/02 09:41:35;;;;;;;10.60;4.13;;;23.70;99.90;;;;;;5051845;28;19905;-60
2023/08/02 09:44:00;;;;;;;10.55;4.30;;;23.80;99.90;;;;;;5051346;28;20441;-59
2023/08/02 09:46:26;;;;;;;11.43;4.50;;;23.90;99.90;;;;;;5051523;28;20445;-59
2023/08/02 09:48:52;;;;;;;10.95;5.13;;;23.90;99.90;;;;;;5051524;28;20033;-60
2023/08/02 09:51:18;;;;;;;9.10;4.50;;;24.00;99.90;;;;;;5051152;28;20033;-60
2023/08/02 09:53:57;;;;;;;10.45;4.60;;;24.10;99.90;;;;;;5051249;28;20483;-60
2023/08/02 09:56:24;;;;;;;11.43;4.88;;;24.10;99.90;;;;;;5051279;28;20028;-60
2023/08/02 09:58:54;;;;;;;13.15;5.57;;;23.80;99.90;;;;;;5051084;28;20086;-59
2023/08/02 10:01:23;;;;;;;10.15;5.00;;;23.50;99.90;;;;;;5051222;28;20107;-60
2023/08/02 10:03:55;;;;;;;12.40;5.22;;;23.50;99.90;;;;;;5051547;28;20025;-60
2023/08/02 10:06:26;;;;;;;10.23;4.17;;;23.50;99.90;;;;;;5050020;28;20033;-61
2023/08/02 10:08:55;;;;;;;11.98;4.30;;;23.30;99.90;;;;;;5051222;28;20051;-60
2023/08/02 10:11:23;;;;;;;12.00;4.28;;;23.40;99.90;;;;;;5050906;28;20083;-60
2023/08/02 10:13:51;;;;;;;14.80;4.45;;;23.50;99.90;;;;;;5051068;28;20454;-60
2023/08/02 10:16:18;;;;;;;11.95;4.05;;;23.50;99.90;;;;;;5051080;28;20029;-60
2023/08/02 10:18:46;;;;;;;10.80;3.67;;;23.50;99.90;;;;;;5051050;28;20033;-60
2023/08/02 10:21:13;;;;;;;11.45;3.60;;;23.70;99.90;;;;;;5050923;28;20057;-60
2023/08/02 10:23:40;;;;;;;11.27;4.20;;;23.70;99.90;;;;;;5050703;28;20029;-60
2023/08/02 10:26:06;;;;;;;12.57;4.05;;;23.60;99.90;;;;;;5050979;28;20029;-60
2023/08/02 10:28:33;;;;;;;10.88;3.70;;;23.50;99.90;;;;;;5051259;28;20025;-60
2023/08/02 10:31:01;;;;;;;15.13;4.10;;;23.50;99.90;;;;;;5050847;28;20439;-60
2023/08/02 10:33:27;;;;;;;13.38;3.80;;;23.40;99.90;;;;;;5050882;28;20064;-60
2023/08/02 10:36:01;;;;;;;11.65;3.83;;;23.30;99.90;;;;;;5050992;28;20018;-60
2023/08/02 10:38:46;;;;;;;14.18;3.40;;;23.30;99.90;;;;;;5051212;28;20040;-60
2023/08/02 10:41:16;;;;;;;11.82;3.55;;;23.20;99.90;;;;;;5050801;28;20053;-60
2023/08/02 10:43:54;;;;;;;12.00;3.50;;;23.30;99.90;;;;;;5051338;28;20566;-60
2023/08/02 10:46:27;;;;;;;12.50;3.85;;;23.30;99.90;;;;;;5050696;28;20036;-60
2023/08/02 10:49:13;;;;;;;9.68;3.45;;;23.20;99.90;;;;;;5050349;28;20178;-60
2023/08/02 10:51:39;;;;;;;8.88;3.40;;;23.30;99.90;;;;;;5050396;28;20387;-60
2023/08/02 10:54:21;;;;;;;11.75;3.58;;;23.20;99.90;;;;;;5049277;28;20032;-60
2023/08/02 10:56:52;;;;;;;12.00;3.63;;;23.20;99.90;;;;;;5050668;28;20470;-60
2023/08/02 10:59:24;;;;;;;12.95;3.30;;;23.20;99.90;;;;;;5050501;28;20079;-60
2023/08/02 11:02:02;;;;;;;15.55;4.00;;;23.20;99.90;;;;;;5050956;28;20036;-60
2023/08/02 11:04:32;;;;;;;11.68;3.70;;;23.40;99.90;;;;;;5050416;28;20057;-60
2023/08/02 11:07:12;;;;;;;9.43;4.03;;;23.60;99.90;;;;;;5050676;28;20029;-60
2023/08/02 11:09:38;;;;;;;12.65;3.65;;;23.70;99.90;;;;;;5050404;28;20036;-60
2023/08/02 11:12:18;;;;;;;10.45;3.92;;;23.80;99.90;;;;;;5050324;28;20017;-60
2023/08/02 11:14:46;;;;;;;8.90;3.58;;;23.60;99.90;;;;;;5050418;28;20029;-60
2023/08/02 11:17:19;;;;;;;11.45;3.95;;;23.50;99.90;;;;;;5052348;28;20436;-60
2023/08/02 11:19:46;;;;;;;;;;;23.40;99.90;;;;;;5054621;28;20231;-59
2023/08/02 11:22:12;;;;;;;10.38;3.78;;;23.20;99.90;;;;;;5054047;28;19973;-60
2023/08/02 11:24:53;;;;;;;13.20;3.45;;;23.20;99.90;;;;;;5053713;28;20052;-59
2023/08/02 11:27:23;;;;;;;12.68;3.47;;;23.30;99.90;;;;;;5053862;28;20091;-60
2023/08/02 11:30:07;;;;;;;10.93;3.50;;;23.30;99.90;;;;;;5053659;28;20040;-60
2023/08/02 11:32:34;;;;;;;9.73;3.00;;;23.30;99.90;;;;;;5053576;28;20032;-60
2023/08/02 11:35:00;;;;;;;11.52;3.10;;;23.30;99.90;;;;;;5053791;28;20094;-60
2023/08/02 11:37:27;;;;;;;10.13;3.00;;;23.60;99.90;;;;;;5053661;28;20024;-60
2023/08/02 11:39:55;;;;;;;11.02;3.03;;;23.70;99.90;;;;;;5053630;28;20410;-60
2023/08/02 11:42:20;;;;;;;11.25;3.53;;;23.60;99.90;;;;;;5053897;28;20025;-60
2023/08/02 11:44:46;;;;;;;10.98;3.17;;;23.40;99.90;;;;;;5053500;28;20028;-59
2023/08/02 11:47:12;;;;;;;9.10;2.50;;;23.10;99.90;;;;;;5053136;28;20401;-60
2023/08/02 11:49:52;;;;;;;11.27;2.80;;;22.70;99.90;;;;;;5053368;28;20106;-60
2023/08/02 11:52:37;;;;;;;9.77;2.83;;;22.70;99.90;;;;;;5053381;28;20033;-60
2023/08/02 11:55:04;;;;;;;12.65;3.10;;;22.70;99.90;;;;;;5053187;28;20040;-60
2023/08/02 11:57:29;;;;;;;11.90;3.33;;;22.60;99.90;;;;;;5053342;28;20033;-60
2023/08/02 11:59:56;;;;;;;12.07;3.67;;;22.50;99.90;;;;;;5053366;28;20083;-60
2023/08/02 12:02:30;;;;;;;13.45;3.72;;;22.30;99.90;;;;;;5052856;28;20029;-60
2023/08/02 12:04:56;;;;;;;15.07;3.90;;;22.20;99.90;;;;;;5053229;28;20029;-60
2023/08/02 12:07:25;;;;;;;17.98;4.75;;;22.00;99.90;;;;;;5053139;28;20028;-60
2023/08/02 12:09:51;;;;;;;15.40;3.70;;;22.00;99.90;;;;;;5052973;28;20107;-60
2023/08/02 12:12:17;;;;;;;11.23;3.47;;;22.00;99.90;;;;;;5053144;28;20059;-61
2023/08/02 12:14:43;;;;;;;11.68;3.50;;;22.10;99.90;;;;;;5052708;28;20323;-60
2023/08/02 12:17:19;;;;;;;11.50;3.40;;;22.10;99.90;;;;;;5053082;28;20024;-60
2023/08/02 12:19:45;;;;;;;12.02;3.75;;;22.30;99.90;;;;;;5052550;28;20037;-61
2023/08/02 12:22:11;;;;;;;13.68;3.55;;;22.30;99.90;;;;;;5052770;28;20478;-60
2023/08/02 12:24:37;;;;;;;15.57;4.10;;;22.40;99.90;;;;;;5052641;28;20048;-60
2023/08/02 12:27:17;;;;;;;17.13;4.30;;;22.50;99.90;;;;;;5052749;28;20096;-62
2023/08/02 12:29:44;;;;;;;16.48;4.22;;;22.70;99.90;;;;;;5051840;28;20032;-59
2023/08/02 12:32:11;;;;;;;22.30;4.70;;;23.00;99.90;;;;;;5052711;28;20025;-60
2023/08/02 12:34:36;;;;;;;19.95;5.60;;;23.00;99.90;;;;;;5052651;28;20086;-60
2023/08/02 12:37:03;;;;;;;25.58;6.03;;;23.00;99.90;;;;;;5052923;28;20458;-60
2023/08/02 12:39:29;;;;;;;26.42;6.07;;;23.20;99.90;;;;;;5052386;28;20401;-60